sensor_id;sensor_type;location;lat;lon;timestamp;P1;durP1;ratioP1;P2;durP2;ratioP2
21804;SDS011;11064;47.102;15.452;2022-09-21T04:01:56;4.50;;;1.90;;
21804;SDS011;11064;47.102;15.452;2022-09-21T04:04:22;2.85;;;1.90;;
21804;SDS011;11064;47.102;15.452;2022-09-21T04:06:48;4.70;;;2.30;;
21804;SDS011;11064;47.102;15.452;2022-09-21T04:09:13;2.20;;;1.77;;
21804;SDS011;11064;47.102;15.452;2022-09-21T04:11:39;3.53;;;2.05;;
21804;SDS011;11064;47.102;15.452;2022-09-21T04:14:05;3.00;;;2.03;;
21804;SDS011;11064;47.102;15.452;2022-09-21T04:16:30;2.42;;;1.65;;
21804;SDS011;11064;47.102;15.452;2022-09-21T04:18:56;2.47;;;1.50;;
21804;SDS011;11064;47.102;15.452;2022-09-21T04:21:22;2.88;;;1.60;;
21804;SDS011;11064;47.102;15.452;2022-09-21T04:23:48;2.85;;;2.10;;
21804;SDS011;11064;47.102;15.452;2022-09-21T04:26:21;4.20;;;1.90;;
21804;SDS011;11064;47.102;15.452;2022-09-21T04:28:52;3.85;;;1.58;;
21804;SDS011;11064;47.102;15.452;2022-09-21T04:31:19;6.15;;;2.22;;
21804;SDS011;11064;47.102;15.452;2022-09-21T04:33:46;2.40;;;1.60;;
21804;SDS011;11064;47.102;15.452;2022-09-21T04:36:14;2.65;;;1.60;;
21804;SDS011;11064;47.102;15.452;2022-09-21T04:38:40;2.92;;;1.92;;
21804;SDS011;11064;47.102;15.452;2022-09-21T04:41:05;5.88;;;1.90;;
21804;SDS011;11064;47.102;15.452;2022-09-21T04:43:31;3.50;;;1.70;;
21804;SDS011;11064;47.102;15.452;2022-09-21T04:45:57;4.88;;;2.38;;
21804;SDS011;11064;47.102;15.452;2022-09-21T04:48:23;4.03;;;2.00;;
21804;SDS011;11064;47.102;15.452;2022-09-21T04:50:49;4.50;;;1.85;;
21804;SDS011;11064;47.102;15.452;2022-09-21T04:53:16;3.30;;;1.90;;
21804;SDS011;11064;47.102;15.452;2022-09-21T04:55:43;2.67;;;1.90;;
21804;SDS011;11064;47.102;15.452;2022-09-21T04:58:10;2.20;;;1.92;;
21804;SDS011;11064;47.102;15.452;2022-09-21T05:00:35;3.92;;;2.10;;
21804;SDS011;11064;47.102;15.452;2022-09-21T05:03:01;2.08;;;1.80;;
21804;SDS011;11064;47.102;15.452;2022-09-21T05:05:27;2.65;;;1.75;;
21804;SDS011;11064;47.102;15.452;2022-09-21T05:07:52;2.53;;;1.90;;
21804;SDS011;11064;47.102;15.452;2022-09-21T05:10:18;2.83;;;1.95;;
21804;SDS011;11064;47.102;15.452;2022-09-21T05:12:44;2.65;;;1.80;;
21804;SDS011;11064;47.102;15.452;2022-09-21T05:15:10;5.65;;;2.03;;
21804;SDS011;11064;47.102;15.452;2022-09-21T05:17:36;2.35;;;2.00;;
21804;SDS011;11064;47.102;15.452;2022-09-21T05:20:02;2.38;;;1.90;;
21804;SDS011;11064;47.102;15.452;2022-09-21T05:22:28;6.22;;;2.30;;
21804;SDS011;11064;47.102;15.452;2022-09-21T05:24:54;4.95;;;2.08;;
21804;SDS011;11064;47.102;15.452;2022-09-21T05:27:19;3.15;;;2.00;;
21804;SDS011;11064;47.102;15.452;2022-09-21T05:29:45;2.10;;;1.60;;
21804;SDS011;11064;47.102;15.452;2022-09-21T05:32:29;2.97;;;1.55;;
21804;SDS011;11064;47.102;15.452;2022-09-21T05:37:47;4.88;;;2.05;;
21804;SDS011;11064;47.102;15.452;2022-09-21T05:40:25;4.35;;;1.85;;
21804;SDS011;11064;47.102;15.452;2022-09-21T05:42:51;1.77;;;1.50;;
21804;SDS011;11064;47.102;15.452;2022-09-21T05:45:17;2.75;;;1.80;;
21804;SDS011;11064;47.102;15.452;2022-09-21T05:55:59;3.67;;;1.60;;
21804;SDS011;11064;47.102;15.452;2022-09-21T06:01:27;4.38;;;1.52;;
21804;SDS011;11064;47.102;15.452;2022-09-21T06:03:59;3.28;;;1.58;;
21804;SDS011;11064;47.102;15.452;2022-09-21T06:06:27;3.53;;;1.45;;
21804;SDS011;11064;47.102;15.452;2022-09-21T06:08:53;1.88;;;1.45;;
21804;SDS011;11064;47.102;15.452;2022-09-21T06:11:19;2.05;;;1.45;;
21804;SDS011;11064;47.102;15.452;2022-09-21T06:13:44;2.88;;;1.23;;
21804;SDS011;11064;47.102;15.452;2022-09-21T06:16:10;1.52;;;1.33;;
21804;SDS011;11064;47.102;15.452;2022-09-21T06:18:37;2.95;;;1.55;;
21804;SDS011;11064;47.102;15.452;2022-09-21T06:21:04;1.63;;;1.40;;
21804;SDS011;11064;47.102;15.452;2022-09-21T06:23:30;2.92;;;1.52;;
21804;SDS011;11064;47.102;15.452;2022-09-21T06:25:56;2.92;;;1.50;;
21804;SDS011;11064;47.102;15.452;2022-09-21T06:28:22;3.25;;;1.33;;
21804;SDS011;11064;47.102;15.452;2022-09-21T06:30:51;1.23;;;1.10;;
21804;SDS011;11064;47.102;15.452;2022-09-21T06:33:18;2.75;;;1.60;;
21804;SDS011;11064;47.102;15.452;2022-09-21T06:35:57;1.80;;;1.33;;
21804;SDS011;11064;47.102;15.452;2022-09-21T06:38:24;4.55;;;1.30;;
21804;SDS011;11064;47.102;15.452;2022-09-21T06:40:52;3.92;;;1.50;;
21804;SDS011;11064;47.102;15.452;2022-09-21T06:43:18;3.45;;;1.58;;
21804;SDS011;11064;47.102;15.452;2022-09-21T06:45:54;2.58;;;1.50;;
21804;SDS011;11064;47.102;15.452;2022-09-21T06:48:21;2.15;;;1.52;;
21804;SDS011;11064;47.102;15.452;2022-09-21T06:50:48;3.05;;;1.60;;
21804;SDS011;11064;47.102;15.452;2022-09-21T06:53:16;1.95;;;1.60;;
21804;SDS011;11064;47.102;15.452;2022-09-21T06:55:42;3.65;;;1.60;;
21804;SDS011;11064;47.102;15.452;2022-09-21T06:58:08;4.70;;;1.15;;
21804;SDS011;11064;47.102;15.452;2022-09-21T07:00:34;1.60;;;1.30;;
21804;SDS011;11064;47.102;15.452;2022-09-21T07:03:00;2.10;;;1.30;;
21804;SDS011;11064;47.102;15.452;2022-09-21T07:05:26;1.58;;;1.10;;
21804;SDS011;11064;47.102;15.452;2022-09-21T07:07:57;1.73;;;1.02;;
21804;SDS011;11064;47.102;15.452;2022-09-21T07:10:24;1.85;;;1.05;;
21804;SDS011;11064;47.102;15.452;2022-09-21T07:12:50;1.67;;;1.10;;
21804;SDS011;11064;47.102;15.452;2022-09-21T07:15:16;2.25;;;1.10;;
21804;SDS011;11064;47.102;15.452;2022-09-21T07:17:46;2.40;;;0.98;;
21804;SDS011;11064;47.102;15.452;2022-09-21T07:20:12;1.75;;;1.10;;
21804;SDS011;11064;47.102;15.452;2022-09-21T07:22:38;1.00;;;0.80;;
21804;SDS011;11064;47.102;15.452;2022-09-21T07:25:03;1.25;;;0.80;;
21804;SDS011;11064;47.102;15.452;2022-09-21T07:27:30;1.40;;;0.80;;
21804;SDS011;11064;47.102;15.452;2022-09-21T07:29:57;2.05;;;0.85;;
21804;SDS011;11064;47.102;15.452;2022-09-21T07:32:23;0.98;;;0.80;;
21804;SDS011;11064;47.102;15.452;2022-09-21T07:34:50;1.27;;;0.70;;
21804;SDS011;11064;47.102;15.452;2022-09-21T07:37:21;2.00;;;1.00;;
21804;SDS011;11064;47.102;15.452;2022-09-21T07:39:48;2.03;;;0.98;;
21804;SDS011;11064;47.102;15.452;2022-09-21T07:42:15;1.40;;;0.90;;
21804;SDS011;11064;47.102;15.452;2022-09-21T07:44:42;2.70;;;1.00;;
21804;SDS011;11064;47.102;15.452;2022-09-21T07:47:08;1.83;;;1.10;;
21804;SDS011;11064;47.102;15.452;2022-09-21T07:49:34;1.92;;;1.10;;
21804;SDS011;11064;47.102;15.452;2022-09-21T07:52:00;1.27;;;0.90;;
21804;SDS011;11064;47.102;15.452;2022-09-21T07:54:27;2.38;;;0.90;;
21804;SDS011;11064;47.102;15.452;2022-09-21T07:56:52;1.35;;;1.10;;
21804;SDS011;11064;47.102;15.452;2022-09-21T07:59:36;2.67;;;1.17;;
21804;SDS011;11064;47.102;15.452;2022-09-21T08:02:02;2.67;;;1.23;;
21804;SDS011;11064;47.102;15.452;2022-09-21T08:04:28;4.18;;;1.20;;
21804;SDS011;11064;47.102;15.452;2022-09-21T08:06:53;1.67;;;1.20;;
21804;SDS011;11064;47.102;15.452;2022-09-21T08:09:20;1.60;;;0.90;;
21804;SDS011;11064;47.102;15.452;2022-09-21T08:11:45;2.25;;;0.90;;
21804;SDS011;11064;47.102;15.452;2022-09-21T08:14:11;3.00;;;1.10;;
21804;SDS011;11064;47.102;15.452;2022-09-21T08:16:44;2.47;;;1.10;;
21804;SDS011;11064;47.102;15.452;2022-09-21T08:19:11;1.88;;;0.70;;
21804;SDS011;11064;47.102;15.452;2022-09-21T08:21:38;1.63;;;0.93;;
21804;SDS011;11064;47.102;15.452;2022-09-21T08:24:04;0.85;;;0.60;;
21804;SDS011;11064;47.102;15.452;2022-09-21T08:26:30;0.85;;;0.75;;
21804;SDS011;11064;47.102;15.452;2022-09-21T08:28:57;1.73;;;0.70;;
21804;SDS011;11064;47.102;15.452;2022-09-21T08:31:23;2.40;;;0.80;;
21804;SDS011;11064;47.102;15.452;2022-09-21T08:33:49;3.22;;;0.75;;
21804;SDS011;11064;47.102;15.452;2022-09-21T08:36:17;0.93;;;0.70;;
21804;SDS011;11064;47.102;15.452;2022-09-21T08:38:43;1.10;;;0.70;;
21804;SDS011;11064;47.102;15.452;2022-09-21T08:43:48;0.73;;;0.65;;
21804;SDS011;11064;47.102;15.452;2022-09-21T08:46:23;0.68;;;0.60;;
21804;SDS011;11064;47.102;15.452;2022-09-21T08:48:56;0.60;;;0.60;;
21804;SDS011;11064;47.102;15.452;2022-09-21T08:51:43;0.60;;;0.60;;
21804;SDS011;11064;47.102;15.452;2022-09-21T08:54:18;0.77;;;0.68;;
21804;SDS011;11064;47.102;15.452;2022-09-21T08:56:51;0.68;;;0.60;;
21804;SDS011;11064;47.102;15.452;2022-09-21T08:59:18;2.15;;;0.60;;
21804;SDS011;11064;47.102;15.452;2022-09-21T09:01:49;0.50;;;0.50;;
21804;SDS011;11064;47.102;15.452;2022-09-21T09:20:35;0.50;;;0.50;;
21804;SDS011;11064;47.102;15.452;2022-09-21T09:23:24;2.47;;;0.60;;
21804;SDS011;11064;47.102;15.452;2022-09-21T09:26:00;0.50;;;0.50;;
21804;SDS011;11064;47.102;15.452;2022-09-21T09:31:33;1.35;;;0.55;;
21804;SDS011;11064;47.102;15.452;2022-09-21T09:34:07;0.60;;;0.60;;
21804;SDS011;11064;47.102;15.452;2022-09-21T09:36:46;1.45;;;0.70;;
21804;SDS011;11064;47.102;15.452;2022-09-21T09:39:16;1.38;;;0.60;;
21804;SDS011;11064;47.102;15.452;2022-09-21T09:52:04;0.80;;;0.50;;
21804;SDS011;11064;47.102;15.452;2022-09-21T09:54:33;0.60;;;0.50;;
21804;SDS011;11064;47.102;15.452;2022-09-21T09:57:03;1.02;;;0.50;;
21804;SDS011;11064;47.102;15.452;2022-09-21T10:02:05;1.38;;;0.50;;
21804;SDS011;11064;47.102;15.452;2022-09-21T10:07:44;0.68;;;0.45;;
21804;SDS011;11064;47.102;15.452;2022-09-21T10:15:38;0.60;;;0.52;;
21804;SDS011;11064;47.102;15.452;2022-09-21T10:18:17;2.45;;;0.60;;
21804;SDS011;11064;47.102;15.452;2022-09-21T10:21:00;0.88;;;0.52;;
21804;SDS011;11064;47.102;15.452;2022-09-21T10:23:30;1.27;;;0.60;;
21804;SDS011;11064;47.102;15.452;2022-09-21T10:28:29;0.43;;;0.43;;
21804;SDS011;11064;47.102;15.452;2022-09-21T10:31:38;0.73;;;0.52;;
21804;SDS011;11064;47.102;15.452;2022-09-21T10:33:49;0.70;;;0.60;;
21804;SDS011;11064;47.102;15.452;2022-09-21T10:36:23;0.65;;;0.55;;
21804;SDS011;11064;47.102;15.452;2022-09-21T10:38:50;0.75;;;0.57;;
21804;SDS011;11064;47.102;15.452;2022-09-21T10:41:17;2.45;;;0.60;;
21804;SDS011;11064;47.102;15.452;2022-09-21T10:43:42;3.17;;;0.75;;
21804;SDS011;11064;47.102;15.452;2022-09-21T10:46:08;0.63;;;0.60;;
21804;SDS011;11064;47.102;15.452;2022-09-21T10:48:35;0.52;;;0.52;;
21804;SDS011;11064;47.102;15.452;2022-09-21T10:51:01;1.10;;;0.68;;
21804;SDS011;11064;47.102;15.452;2022-09-21T10:53:29;2.05;;;0.60;;
21804;SDS011;11064;47.102;15.452;2022-09-21T10:56:06;2.00;;;0.52;;
21804;SDS011;11064;47.102;15.452;2022-09-21T11:01:45;0.90;;;0.70;;
21804;SDS011;11064;47.102;15.452;2022-09-21T11:04:35;1.65;;;0.60;;
21804;SDS011;11064;47.102;15.452;2022-09-21T11:07:10;1.52;;;0.70;;
21804;SDS011;11064;47.102;15.452;2022-09-21T11:15:32;0.43;;;0.43;;
21804;SDS011;11064;47.102;15.452;2022-09-21T11:18:13;0.50;;;0.50;;
21804;SDS011;11064;47.102;15.452;2022-09-21T11:21:12;0.45;;;0.40;;
21804;SDS011;11064;47.102;15.452;2022-09-21T11:26:55;0.70;;;0.50;;
21804;SDS011;11064;47.102;15.452;2022-09-21T11:30:18;1.30;;;0.60;;
21804;SDS011;11064;47.102;15.452;2022-09-21T11:41:17;0.52;;;0.50;;
21804;SDS011;11064;47.102;15.452;2022-09-21T11:46:56;1.05;;;0.50;;
21804;SDS011;11064;47.102;15.452;2022-09-21T12:00:16;1.23;;;0.60;;
21804;SDS011;11064;47.102;15.452;2022-09-21T12:06:12;0.45;;;0.45;;
21804;SDS011;11064;47.102;15.452;2022-09-21T12:14:36;0.82;;;0.45;;
21804;SDS011;11064;47.102;15.452;2022-09-21T12:17:28;0.50;;;0.40;;
21804;SDS011;11064;47.102;15.452;2022-09-21T12:20:06;1.45;;;0.40;;
21804;SDS011;11064;47.102;15.452;2022-09-21T12:22:35;0.93;;;0.55;;
21804;SDS011;11064;47.102;15.452;2022-09-21T12:25:25;0.40;;;0.40;;
21804;SDS011;11064;47.102;15.452;2022-09-21T12:28:01;0.47;;;0.35;;
21804;SDS011;11064;47.102;15.452;2022-09-21T12:30:36;0.60;;;0.40;;
21804;SDS011;11064;47.102;15.452;2022-09-21T12:36:11;0.95;;;0.47;;
21804;SDS011;11064;47.102;15.452;2022-09-21T12:38:44;0.65;;;0.50;;
21804;SDS011;11064;47.102;15.452;2022-09-21T12:41:38;0.47;;;0.40;;
21804;SDS011;11064;47.102;15.452;2022-09-21T12:46:48;0.35;;;0.30;;
21804;SDS011;11064;47.102;15.452;2022-09-21T12:49:33;0.40;;;0.30;;
21804;SDS011;11064;47.102;15.452;2022-09-21T12:52:07;0.60;;;0.40;;
21804;SDS011;11064;47.102;15.452;2022-09-21T12:57:21;1.15;;;0.30;;
21804;SDS011;11064;47.102;15.452;2022-09-21T12:59:59;1.02;;;0.30;;
21804;SDS011;11064;47.102;15.452;2022-09-21T13:02:47;0.32;;;0.30;;
21804;SDS011;11064;47.102;15.452;2022-09-21T13:08:11;0.45;;;0.40;;
21804;SDS011;11064;47.102;15.452;2022-09-21T13:10:46;0.85;;;0.40;;
21804;SDS011;11064;47.102;15.452;2022-09-21T13:15:58;0.60;;;0.40;;
21804;SDS011;11064;47.102;15.452;2022-09-21T13:20:51;0.43;;;0.30;;
21804;SDS011;11064;47.102;15.452;2022-09-21T13:26:03;0.60;;;0.50;;
21804;SDS011;11064;47.102;15.452;2022-09-21T13:29:33;1.58;;;0.40;;
21804;SDS011;11064;47.102;15.452;2022-09-21T13:31:57;0.50;;;0.43;;
21804;SDS011;11064;47.102;15.452;2022-09-21T13:45:00;0.30;;;0.30;;
21804;SDS011;11064;47.102;15.452;2022-09-21T13:47:40;0.38;;;0.38;;
21804;SDS011;11064;47.102;15.452;2022-09-21T13:52:49;0.30;;;0.30;;
21804;SDS011;11064;47.102;15.452;2022-09-21T13:57:53;0.28;;;0.28;;
21804;SDS011;11064;47.102;15.452;2022-09-21T14:13:33;1.38;;;0.40;;
21804;SDS011;11064;47.102;15.452;2022-09-21T14:18:44;0.68;;;0.30;;
21804;SDS011;11064;47.102;15.452;2022-09-21T14:21:12;0.40;;;0.30;;
21804;SDS011;11064;47.102;15.452;2022-09-21T14:26:33;0.40;;;0.32;;
21804;SDS011;11064;47.102;15.452;2022-09-21T14:29:19;1.55;;;0.60;;
21804;SDS011;11064;47.102;15.452;2022-09-21T14:31:56;1.13;;;0.30;;
21804;SDS011;11064;47.102;15.452;2022-09-21T14:34:26;0.50;;;0.40;;
21804;SDS011;11064;47.102;15.452;2022-09-21T14:37:01;0.98;;;0.35;;
21804;SDS011;11064;47.102;15.452;2022-09-21T14:39:44;1.80;;;0.32;;
21804;SDS011;11064;47.102;15.452;2022-09-21T14:42:13;0.68;;;0.68;;
21804;SDS011;11064;47.102;15.452;2022-09-21T14:57:38;1.35;;;0.50;;
21804;SDS011;11064;47.102;15.452;2022-09-21T15:02:39;0.65;;;0.63;;
21804;SDS011;11064;47.102;15.452;2022-09-21T15:08:13;0.73;;;0.60;;
21804;SDS011;11064;47.102;15.452;2022-09-21T15:11:25;0.50;;;0.50;;
21804;SDS011;11064;47.102;15.452;2022-09-21T15:19:23;2.28;;;1.00;;
21804;SDS011;11064;47.102;15.452;2022-09-21T15:24:47;0.77;;;0.47;;
21804;SDS011;11064;47.102;15.452;2022-09-21T15:27:16;0.40;;;0.40;;
21804;SDS011;11064;47.102;15.452;2022-09-21T15:29:48;0.50;;;0.50;;
21804;SDS011;11064;47.102;15.452;2022-09-21T15:35:17;1.52;;;1.30;;
21804;SDS011;11064;47.102;15.452;2022-09-21T15:37:44;0.82;;;0.82;;
21804;SDS011;11064;47.102;15.452;2022-09-21T15:40:18;0.70;;;0.60;;
21804;SDS011;11064;47.102;15.452;2022-09-21T15:43:34;2.53;;;1.90;;
21804;SDS011;11064;47.102;15.452;2022-09-21T15:48:23;0.52;;;0.52;;
21804;SDS011;11064;47.102;15.452;2022-09-21T15:50:57;0.40;;;0.40;;
21804;SDS011;11064;47.102;15.452;2022-09-21T15:53:28;2.05;;;0.55;;
21804;SDS011;11064;47.102;15.452;2022-09-21T15:56:04;0.73;;;0.60;;
21804;SDS011;11064;47.102;15.452;2022-09-21T15:58:34;0.55;;;0.32;;
21804;SDS011;11064;47.102;15.452;2022-09-21T16:01:03;0.30;;;0.30;;
21804;SDS011;11064;47.102;15.452;2022-09-21T16:03:35;0.40;;;0.40;;
21804;SDS011;11064;47.102;15.452;2022-09-21T16:06:16;0.60;;;0.50;;
21804;SDS011;11064;47.102;15.452;2022-09-21T16:08:42;2.13;;;0.50;;
21804;SDS011;11064;47.102;15.452;2022-09-21T16:14:10;1.45;;;0.82;;
21804;SDS011;11064;47.102;15.452;2022-09-21T16:19:43;1.05;;;0.50;;
21804;SDS011;11064;47.102;15.452;2022-09-21T16:22:48;0.80;;;0.70;;
21804;SDS011;11064;47.102;15.452;2022-09-21T16:27:48;0.80;;;0.80;;
21804;SDS011;11064;47.102;15.452;2022-09-21T16:32:59;0.85;;;0.70;;
21804;SDS011;11064;47.102;15.452;2022-09-21T16:35:26;0.95;;;0.75;;
21804;SDS011;11064;47.102;15.452;2022-09-21T16:37:53;0.70;;;0.70;;
21804;SDS011;11064;47.102;15.452;2022-09-21T16:40:23;1.67;;;1.35;;
21804;SDS011;11064;47.102;15.452;2022-09-21T16:42:52;1.27;;;1.17;;
21804;SDS011;11064;47.102;15.452;2022-09-21T16:45:23;1.45;;;1.02;;
21804;SDS011;11064;47.102;15.452;2022-09-21T16:47:54;0.75;;;0.68;;
21804;SDS011;11064;47.102;15.452;2022-09-21T16:50:21;1.08;;;0.70;;
21804;SDS011;11064;47.102;15.452;2022-09-21T16:52:48;0.70;;;0.60;;
21804;SDS011;11064;47.102;15.452;2022-09-21T16:55:16;0.50;;;0.50;;
21804;SDS011;11064;47.102;15.452;2022-09-21T16:57:43;0.90;;;0.60;;
21804;SDS011;11064;47.102;15.452;2022-09-21T17:00:10;1.48;;;0.50;;
21804;SDS011;11064;47.102;15.452;2022-09-21T17:02:37;0.73;;;0.70;;
21804;SDS011;11064;47.102;15.452;2022-09-21T17:05:09;1.05;;;0.70;;
21804;SDS011;11064;47.102;15.452;2022-09-21T17:07:35;0.60;;;0.60;;
21804;SDS011;11064;47.102;15.452;2022-09-21T17:10:04;0.70;;;0.52;;
21804;SDS011;11064;47.102;15.452;2022-09-21T17:12:38;1.10;;;0.70;;
21804;SDS011;11064;47.102;15.452;2022-09-21T17:15:04;0.70;;;0.55;;
21804;SDS011;11064;47.102;15.452;2022-09-21T17:17:32;0.80;;;0.70;;
21804;SDS011;11064;47.102;15.452;2022-09-21T17:19:57;0.75;;;0.63;;
21804;SDS011;11064;47.102;15.452;2022-09-21T17:22:30;0.70;;;0.60;;
21804;SDS011;11064;47.102;15.452;2022-09-21T17:24:56;1.00;;;0.73;;
21804;SDS011;11064;47.102;15.452;2022-09-21T17:27:23;0.90;;;0.77;;
21804;SDS011;11064;47.102;15.452;2022-09-21T17:29:51;1.50;;;0.63;;
21804;SDS011;11064;47.102;15.452;2022-09-21T17:32:19;0.60;;;0.60;;
21804;SDS011;11064;47.102;15.452;2022-09-21T17:34:53;2.55;;;1.30;;
21804;SDS011;11064;47.102;15.452;2022-09-21T17:37:37;1.00;;;0.90;;
21804;SDS011;11064;47.102;15.452;2022-09-21T17:40:03;1.50;;;1.00;;
21804;SDS011;11064;47.102;15.452;2022-09-21T17:42:29;1.13;;;1.02;;
21804;SDS011;11064;47.102;15.452;2022-09-21T17:45:16;1.00;;;0.90;;
21804;SDS011;11064;47.102;15.452;2022-09-21T17:48:04;0.70;;;0.70;;
21804;SDS011;11064;47.102;15.452;2022-09-21T17:50:36;1.10;;;1.00;;
21804;SDS011;11064;47.102;15.452;2022-09-21T17:53:02;1.45;;;0.80;;
21804;SDS011;11064;47.102;15.452;2022-09-21T17:55:48;1.73;;;1.50;;
21804;SDS011;11064;47.102;15.452;2022-09-21T18:01:00;4.28;;;2.72;;
21804;SDS011;11064;47.102;15.452;2022-09-21T18:03:28;2.33;;;1.50;;
21804;SDS011;11064;47.102;15.452;2022-09-21T18:05:56;1.20;;;1.10;;
21804;SDS011;11064;47.102;15.452;2022-09-21T18:08:31;1.45;;;1.25;;
21804;SDS011;11064;47.102;15.452;2022-09-21T18:21:28;1.80;;;1.15;;
21804;SDS011;11064;47.102;15.452;2022-09-21T18:26:51;1.60;;;1.10;;
21804;SDS011;11064;47.102;15.452;2022-09-21T18:29:20;1.92;;;1.40;;
21804;SDS011;11064;47.102;15.452;2022-09-21T18:32:02;3.03;;;1.50;;
21804;SDS011;11064;47.102;15.452;2022-09-21T18:34:57;2.65;;;1.70;;
21804;SDS011;11064;47.102;15.452;2022-09-21T18:40:33;1.45;;;1.25;;
21804;SDS011;11064;47.102;15.452;2022-09-21T18:46:31;1.35;;;0.98;;
21804;SDS011;11064;47.102;15.452;2022-09-21T18:54:14;1.70;;;1.20;;
21804;SDS011;11064;47.102;15.452;2022-09-21T18:56:44;1.30;;;0.90;;
21804;SDS011;11064;47.102;15.452;2022-09-21T18:59:11;1.00;;;0.90;;
21804;SDS011;11064;47.102;15.452;2022-09-21T19:01:38;1.42;;;1.02;;
21804;SDS011;11064;47.102;15.452;2022-09-21T19:04:05;1.88;;;0.93;;
21804;SDS011;11064;47.102;15.452;2022-09-21T19:06:39;1.67;;;0.80;;
21804;SDS011;11064;47.102;15.452;2022-09-21T19:09:26;2.05;;;0.90;;
21804;SDS011;11064;47.102;15.452;2022-09-21T19:14:51;1.38;;;1.13;;
21804;SDS011;11064;47.102;15.452;2022-09-21T19:23:07;2.17;;;1.30;;
21804;SDS011;11064;47.102;15.452;2022-09-21T19:25:45;1.10;;;1.00;;
21804;SDS011;11064;47.102;15.452;2022-09-21T19:30:48;1.58;;;1.10;;
21804;SDS011;11064;47.102;15.452;2022-09-21T19:33:20;1.55;;;1.27;;
21804;SDS011;11064;47.102;15.452;2022-09-21T19:35:55;1.85;;;1.23;;
21804;SDS011;11064;47.102;15.452;2022-09-21T19:38:21;2.92;;;1.35;;
21804;SDS011;11064;47.102;15.452;2022-09-21T19:40:49;3.33;;;1.20;;
21804;SDS011;11064;47.102;15.452;2022-09-21T19:43:40;1.40;;;1.15;;
21804;SDS011;11064;47.102;15.452;2022-09-21T19:46:23;2.60;;;1.30;;
21804;SDS011;11064;47.102;15.452;2022-09-21T19:49:35;1.55;;;1.10;;
21804;SDS011;11064;47.102;15.452;2022-09-21T19:52:01;1.70;;;1.25;;
21804;SDS011;11064;47.102;15.452;2022-09-21T19:54:28;1.85;;;1.38;;
21804;SDS011;11064;47.102;15.452;2022-09-21T19:57:17;1.67;;;1.35;;
21804;SDS011;11064;47.102;15.452;2022-09-21T20:00:10;2.80;;;1.40;;
21804;SDS011;11064;47.102;15.452;2022-09-21T20:08:29;1.90;;;1.70;;
21804;SDS011;11064;47.102;15.452;2022-09-21T20:21:39;2.30;;;1.30;;
21804;SDS011;11064;47.102;15.452;2022-09-21T20:24:15;2.17;;;1.40;;
21804;SDS011;11064;47.102;15.452;2022-09-21T20:26:48;1.77;;;1.30;;
21804;SDS011;11064;47.102;15.452;2022-09-21T20:29:15;2.15;;;1.15;;
21804;SDS011;11064;47.102;15.452;2022-09-21T20:31:41;2.47;;;1.30;;
21804;SDS011;11064;47.102;15.452;2022-09-21T20:34:08;1.83;;;1.30;;
21804;SDS011;11064;47.102;15.452;2022-09-21T20:36:35;2.55;;;1.25;;
21804;SDS011;11064;47.102;15.452;2022-09-21T20:39:00;3.00;;;1.63;;
21804;SDS011;11064;47.102;15.452;2022-09-21T20:41:28;1.67;;;1.30;;
21804;SDS011;11064;47.102;15.452;2022-09-21T20:43:54;1.92;;;1.30;;
21804;SDS011;11064;47.102;15.452;2022-09-21T20:46:19;2.42;;;1.30;;
21804;SDS011;11064;47.102;15.452;2022-09-21T20:48:46;3.55;;;1.30;;
21804;SDS011;11064;47.102;15.452;2022-09-21T20:51:11;2.15;;;1.40;;
21804;SDS011;11064;47.102;15.452;2022-09-21T20:53:38;2.97;;;1.42;;
21804;SDS011;11064;47.102;15.452;2022-09-21T20:56:04;2.92;;;1.27;;
21804;SDS011;11064;47.102;15.452;2022-09-21T20:58:30;2.97;;;1.65;;
21804;SDS011;11064;47.102;15.452;2022-09-21T21:01:03;1.55;;;1.20;;
21804;SDS011;11064;47.102;15.452;2022-09-21T21:03:30;1.65;;;1.35;;
21804;SDS011;11064;47.102;15.452;2022-09-21T21:06:06;1.60;;;1.50;;
21804;SDS011;11064;47.102;15.452;2022-09-21T21:08:32;1.60;;;1.40;;
21804;SDS011;11064;47.102;15.452;2022-09-21T21:10:58;1.42;;;1.30;;
21804;SDS011;11064;47.102;15.452;2022-09-21T21:13:27;1.80;;;1.50;;
21804;SDS011;11064;47.102;15.452;2022-09-21T21:15:53;1.92;;;1.50;;
21804;SDS011;11064;47.102;15.452;2022-09-21T21:18:18;3.38;;;1.60;;
21804;SDS011;11064;47.102;15.452;2022-09-21T21:20:44;3.38;;;1.40;;
21804;SDS011;11064;47.102;15.452;2022-09-21T21:23:10;1.90;;;1.40;;
21804;SDS011;11064;47.102;15.452;2022-09-21T21:25:35;1.60;;;1.38;;
21804;SDS011;11064;47.102;15.452;2022-09-21T21:28:01;1.55;;;1.45;;
21804;SDS011;11064;47.102;15.452;2022-09-21T21:30:27;1.80;;;1.30;;
21804;SDS011;11064;47.102;15.452;2022-09-21T21:32:53;1.48;;;1.25;;
21804;SDS011;11064;47.102;15.452;2022-09-21T21:35:20;2.17;;;1.20;;
21804;SDS011;11064;47.102;15.452;2022-09-21T21:37:46;2.38;;;1.40;;
21804;SDS011;11064;47.102;15.452;2022-09-21T21:40:11;1.25;;;1.02;;
21804;SDS011;11064;47.102;15.452;2022-09-21T21:42:37;2.88;;;1.30;;
21804;SDS011;11064;47.102;15.452;2022-09-21T21:45:04;2.17;;;1.40;;
21804;SDS011;11064;47.102;15.452;2022-09-21T21:47:30;2.78;;;1.58;;
21804;SDS011;11064;47.102;15.452;2022-09-21T21:49:55;2.88;;;1.48;;
21804;SDS011;11064;47.102;15.452;2022-09-21T21:52:21;1.75;;;1.20;;
21804;SDS011;11064;47.102;15.452;2022-09-21T21:54:47;1.83;;;1.27;;
21804;SDS011;11064;47.102;15.452;2022-09-21T21:57:13;4.70;;;1.63;;
21804;SDS011;11064;47.102;15.452;2022-09-21T21:59:39;3.17;;;1.42;;
